Busselton Two Day Rally

History of the Two-Day Rally

--o--


2013 Two Day Rally photos here

--o--

2012 Two Day Rally
Link to photos here

--o--

2012 Results
Short Course
Long Course

--o--

2011 Two Day pics below


Saturday 30 April/1 May 2011

 

 

2011 Short course

Carl Montgomery BSA 350  '16 40 9:31 Member #182 Race number #26
Geoff Coole Raleigh 350  '22 40 9:32 154 27
Phil Skinner Triumph 550  '18 45 9:34 523 28
Peter Stocker Kawasaki 200  '80 48 9:36 245L 29
Spencer Sheffield Indian 750  '28 50 9:38 77 30
Ron Gordon Norton 500  '50 50 9:39 106F 31
Greg Boothey Norton 500  '30 50 9:40 146 32
Dave Weeks BSA 500  '28 55 9:42 626L 33
Bill Cowlin BSA 500  '29 55 9:43 476 34
Pat Miller BSA 600  '52 55 9:44 617 35
Owen Page Honda 400  '77 60 9:47 502 36
Kevin Badby Henderson 1300  '23 60 9:48 367 37
Ted Bailey BSA 350  '49 60 9:49 18 38
Peter Thorpe AJS 350 '50 60 9:50 582 39

2011 Long Course

Allen Johnson Honda 400  '78 60 km/hr 8:01 Mem #372
Cheryl White Honda 400 '76 60 8:02 309F
Adrian White Royal Enfield 500 '56 60 8:03 309F
Colin Tie BSA 500  '58 60 8:04 640
Dave Alderson Levis 500   '39 60 8:05 688
Alan Barnes BSA 500   '53 60 8:06 596
Chris Whisson Norton 500   '30 60 8:07 601
David Moore BSA 650  '59 60 8:08 328
Ron Chave Honda 750  '77 60 8:09 244
John Wightman Royal Enfield 250  '54 61 8:10 811
Don Fawell AJS 350  '49 65 8:12 274
Joe Brajkovich Indian 1200 '44 65 8:13 194
Frank Barron Triumph 500  '72 68 8:15 149
Terry McKie Matchless 500  '51 70 8:16 332
Martin Robinson AJS 600  '56 70 8:17 684
Roger Bowen Ducati 900  '80 70 8:18 965
Michael Davie Triumph 750  '74 75 8:20 454
Jim Douglas BSA 750  '68 75 8:21 644
Rex Edmondson Triumph 650  '70 78 8:25 391
Mick King BMW 600  '75 80 8:26 587

Pictures from 2011 Rally
by John Wightman










Pictures from 2010 Rally












Pictures from 2006 Two Day


Pictures from 1988 Busselton Two Day Trial by Murray Barnard

 


Don Bowden


 




All content is Copyright of the Vintage Motorcycle Club of Western Australia Inc. or the photographers indicated